sensor_id;sensor_type;location;lat;lon;timestamp;P1;durP1;ratioP1;P2;durP2;ratioP2
43933;SDS011;59081;42.706;23.306;2023-03-31T00:01:07;20.88;;;9.27;;
43933;SDS011;59081;42.706;23.306;2023-03-31T00:03:33;21.52;;;8.95;;
43933;SDS011;59081;42.706;23.306;2023-03-31T00:06:02;22.00;;;9.30;;
43933;SDS011;59081;42.706;23.306;2023-03-31T00:08:30;20.40;;;9.25;;
43933;SDS011;59081;42.706;23.306;2023-03-31T00:10:59;18.48;;;9.85;;
43933;SDS011;59081;42.706;23.306;2023-03-31T00:13:27;23.73;;;9.65;;
43933;SDS011;59081;42.706;23.306;2023-03-31T00:15:57;19.08;;;9.55;;
43933;SDS011;59081;42.706;23.306;2023-03-31T00:18:29;17.98;;;9.38;;
43933;SDS011;59081;42.706;23.306;2023-03-31T00:21:14;18.02;;;9.20;;
43933;SDS011;59081;42.706;23.306;2023-03-31T00:23:54;18.55;;;10.82;;
43933;SDS011;59081;42.706;23.306;2023-03-31T00:26:27;20.83;;;9.43;;
43933;SDS011;59081;42.706;23.306;2023-03-31T00:28:54;22.65;;;10.13;;
43933;SDS011;59081;42.706;23.306;2023-03-31T00:31:23;19.20;;;10.02;;
43933;SDS011;59081;42.706;23.306;2023-03-31T00:33:49;21.92;;;10.77;;
43933;SDS011;59081;42.706;23.306;2023-03-31T00:36:15;18.50;;;9.40;;
43933;SDS011;59081;42.706;23.306;2023-03-31T00:38:45;17.30;;;9.63;;
43933;SDS011;59081;42.706;23.306;2023-03-31T00:41:12;18.00;;;9.90;;
43933;SDS011;59081;42.706;23.306;2023-03-31T00:43:38;24.88;;;11.30;;
43933;SDS011;59081;42.706;23.306;2023-03-31T00:46:14;21.65;;;10.60;;
43933;SDS011;59081;42.706;23.306;2023-03-31T00:48:55;20.15;;;10.43;;
43933;SDS011;59081;42.706;23.306;2023-03-31T00:51:23;23.27;;;12.35;;
43933;SDS011;59081;42.706;23.306;2023-03-31T00:53:53;20.63;;;10.25;;
43933;SDS011;59081;42.706;23.306;2023-03-31T00:56:25;20.13;;;9.93;;
43933;SDS011;59081;42.706;23.306;2023-03-31T00:58:55;21.55;;;11.65;;
43933;SDS011;59081;42.706;23.306;2023-03-31T01:01:23;20.08;;;10.00;;
43933;SDS011;59081;42.706;23.306;2023-03-31T01:03:50;27.00;;;10.55;;
43933;SDS011;59081;42.706;23.306;2023-03-31T01:06:19;22.98;;;11.13;;
43933;SDS011;59081;42.706;23.306;2023-03-31T01:08:46;20.30;;;11.02;;
43933;SDS011;59081;42.706;23.306;2023-03-31T01:11:15;19.63;;;9.48;;
43933;SDS011;59081;42.706;23.306;2023-03-31T01:13:46;18.13;;;8.73;;
43933;SDS011;59081;42.706;23.306;2023-03-31T01:16:15;19.42;;;8.82;;
43933;SDS011;59081;42.706;23.306;2023-03-31T01:18:42;16.83;;;8.57;;
43933;SDS011;59081;42.706;23.306;2023-03-31T01:24:08;19.38;;;8.55;;
43933;SDS011;59081;42.706;23.306;2023-03-31T01:35:24;16.05;;;8.85;;
43933;SDS011;59081;42.706;23.306;2023-03-31T01:46:26;13.85;;;7.65;;
43933;SDS011;59081;42.706;23.306;2023-03-31T01:49:02;13.60;;;7.07;;
43933;SDS011;59081;42.706;23.306;2023-03-31T01:51:44;12.35;;;6.18;;
43933;SDS011;59081;42.706;23.306;2023-03-31T01:59:10;13.02;;;7.18;;
43933;SDS011;59081;42.706;23.306;2023-03-31T02:01:48;13.80;;;6.60;;
43933;SDS011;59081;42.706;23.306;2023-03-31T02:04:27;14.38;;;7.05;;
43933;SDS011;59081;42.706;23.306;2023-03-31T02:07:06;12.98;;;6.05;;
43933;SDS011;59081;42.706;23.306;2023-03-31T02:09:38;15.25;;;6.93;;
43933;SDS011;59081;42.706;23.306;2023-03-31T02:12:08;13.50;;;6.60;;
43933;SDS011;59081;42.706;23.306;2023-03-31T02:14:36;12.40;;;5.95;;
43933;SDS011;59081;42.706;23.306;2023-03-31T02:17:06;9.55;;;5.43;;
43933;SDS011;59081;42.706;23.306;2023-03-31T02:19:38;15.30;;;7.15;;
43933;SDS011;59081;42.706;23.306;2023-03-31T02:22:08;9.75;;;5.57;;
43933;SDS011;59081;42.706;23.306;2023-03-31T02:24:36;14.20;;;6.13;;
43933;SDS011;59081;42.706;23.306;2023-03-31T02:27:09;15.63;;;5.82;;
43933;SDS011;59081;42.706;23.306;2023-03-31T02:29:45;10.80;;;5.55;;
43933;SDS011;59081;42.706;23.306;2023-03-31T02:32:28;13.57;;;6.35;;
43933;SDS011;59081;42.706;23.306;2023-03-31T02:35:01;11.30;;;6.07;;
43933;SDS011;59081;42.706;23.306;2023-03-31T02:37:28;17.27;;;7.90;;
43933;SDS011;59081;42.706;23.306;2023-03-31T02:39:55;15.68;;;6.97;;
43933;SDS011;59081;42.706;23.306;2023-03-31T02:42:24;16.38;;;7.07;;
43933;SDS011;59081;42.706;23.306;2023-03-31T02:44:50;16.17;;;7.57;;
43933;SDS011;59081;42.706;23.306;2023-03-31T02:47:16;15.75;;;8.98;;
43933;SDS011;59081;42.706;23.306;2023-03-31T02:49:47;14.93;;;7.07;;
43933;SDS011;59081;42.706;23.306;2023-03-31T02:52:20;19.52;;;8.35;;
43933;SDS011;59081;42.706;23.306;2023-03-31T03:03:46;9.02;;;5.32;;
43933;SDS011;59081;42.706;23.306;2023-03-31T03:11:54;16.45;;;5.68;;
43933;SDS011;59081;42.706;23.306;2023-03-31T03:15:25;14.68;;;5.45;;
43933;SDS011;59081;42.706;23.306;2023-03-31T03:17:31;11.48;;;4.75;;
43933;SDS011;59081;42.706;23.306;2023-03-31T03:20:19;7.43;;;4.47;;
43933;SDS011;59081;42.706;23.306;2023-03-31T03:22:45;10.30;;;4.65;;
43933;SDS011;59081;42.706;23.306;2023-03-31T03:25:12;16.05;;;4.05;;
43933;SDS011;59081;42.706;23.306;2023-03-31T03:27:41;11.38;;;4.97;;
43933;SDS011;59081;42.706;23.306;2023-03-31T03:30:07;10.50;;;3.60;;
43933;SDS011;59081;42.706;23.306;2023-03-31T03:32:35;9.70;;;3.92;;
43933;SDS011;59081;42.706;23.306;2023-03-31T03:35:00;7.70;;;3.60;;
43933;SDS011;59081;42.706;23.306;2023-03-31T03:37:27;7.95;;;3.58;;
43933;SDS011;59081;42.706;23.306;2023-03-31T03:39:53;12.07;;;4.63;;
43933;SDS011;59081;42.706;23.306;2023-03-31T03:42:19;18.33;;;5.80;;
43933;SDS011;59081;42.706;23.306;2023-03-31T03:44:45;13.23;;;4.88;;
43933;SDS011;59081;42.706;23.306;2023-03-31T03:47:11;8.02;;;4.03;;
43933;SDS011;59081;42.706;23.306;2023-03-31T03:49:36;14.95;;;4.38;;
43933;SDS011;59081;42.706;23.306;2023-03-31T03:52:02;13.77;;;4.70;;
43933;SDS011;59081;42.706;23.306;2023-03-31T03:54:28;15.52;;;5.60;;
43933;SDS011;59081;42.706;23.306;2023-03-31T03:56:54;13.02;;;4.75;;
43933;SDS011;59081;42.706;23.306;2023-03-31T03:59:19;13.68;;;5.28;;
43933;SDS011;59081;42.706;23.306;2023-03-31T04:01:45;8.95;;;3.92;;
43933;SDS011;59081;42.706;23.306;2023-03-31T04:04:10;11.65;;;4.65;;
43933;SDS011;59081;42.706;23.306;2023-03-31T04:06:36;10.88;;;4.15;;
43933;SDS011;59081;42.706;23.306;2023-03-31T04:09:02;11.27;;;4.20;;
43933;SDS011;59081;42.706;23.306;2023-03-31T04:11:28;9.27;;;3.53;;
43933;SDS011;59081;42.706;23.306;2023-03-31T04:13:54;10.90;;;3.58;;
43933;SDS011;59081;42.706;23.306;2023-03-31T04:16:19;12.65;;;4.78;;
43933;SDS011;59081;42.706;23.306;2023-03-31T04:18:47;9.05;;;3.67;;
43933;SDS011;59081;42.706;23.306;2023-03-31T04:21:13;17.15;;;4.18;;
43933;SDS011;59081;42.706;23.306;2023-03-31T04:23:47;17.23;;;4.38;;
43933;SDS011;59081;42.706;23.306;2023-03-31T04:26:14;10.60;;;4.30;;
43933;SDS011;59081;42.706;23.306;2023-03-31T04:28:42;9.38;;;4.28;;
43933;SDS011;59081;42.706;23.306;2023-03-31T04:31:11;7.30;;;3.40;;
43933;SDS011;59081;42.706;23.306;2023-03-31T04:33:40;8.23;;;3.83;;
43933;SDS011;59081;42.706;23.306;2023-03-31T04:36:10;14.70;;;4.70;;
43933;SDS011;59081;42.706;23.306;2023-03-31T04:38:41;18.58;;;4.55;;
43933;SDS011;59081;42.706;23.306;2023-03-31T04:41:11;11.18;;;4.03;;
43933;SDS011;59081;42.706;23.306;2023-03-31T04:43:37;9.57;;;3.75;;
43933;SDS011;59081;42.706;23.306;2023-03-31T04:46:02;12.68;;;5.95;;
43933;SDS011;59081;42.706;23.306;2023-03-31T04:48:28;9.98;;;3.70;;
43933;SDS011;59081;42.706;23.306;2023-03-31T04:50:53;9.15;;;4.15;;
43933;SDS011;59081;42.706;23.306;2023-03-31T04:53:19;13.77;;;4.85;;
43933;SDS011;59081;42.706;23.306;2023-03-31T04:55:44;15.30;;;5.70;;
43933;SDS011;59081;42.706;23.306;2023-03-31T04:58:10;7.55;;;3.78;;
43933;SDS011;59081;42.706;23.306;2023-03-31T05:00:36;8.52;;;4.75;;
43933;SDS011;59081;42.706;23.306;2023-03-31T05:03:01;9.35;;;4.38;;
43933;SDS011;59081;42.706;23.306;2023-03-31T05:05:30;9.95;;;3.92;;
43933;SDS011;59081;42.706;23.306;2023-03-31T05:07:59;11.60;;;5.53;;
43933;SDS011;59081;42.706;23.306;2023-03-31T05:10:28;12.38;;;5.10;;
43933;SDS011;59081;42.706;23.306;2023-03-31T05:12:59;35.17;;;18.52;;
43933;SDS011;59081;42.706;23.306;2023-03-31T05:15:25;16.10;;;6.88;;
43933;SDS011;59081;42.706;23.306;2023-03-31T05:28:25;14.45;;;7.03;;
43933;SDS011;59081;42.706;23.306;2023-03-31T05:38:41;13.93;;;4.50;;
43933;SDS011;59081;42.706;23.306;2023-03-31T05:43:52;26.25;;;8.25;;
43933;SDS011;59081;42.706;23.306;2023-03-31T05:46:26;12.40;;;7.28;;
43933;SDS011;59081;42.706;23.306;2023-03-31T05:49:00;23.30;;;7.93;;
43933;SDS011;59081;42.706;23.306;2023-03-31T05:51:50;14.45;;;7.10;;
43933;SDS011;59081;42.706;23.306;2023-03-31T05:54:20;19.85;;;5.85;;
43933;SDS011;59081;42.706;23.306;2023-03-31T06:46:27;7.75;;;2.72;;
43933;SDS011;59081;42.706;23.306;2023-03-31T06:51:38;7.95;;;2.55;;
43933;SDS011;59081;42.706;23.306;2023-03-31T06:54:16;7.18;;;2.92;;
43933;SDS011;59081;42.706;23.306;2023-03-31T06:56:47;8.75;;;3.28;;
43933;SDS011;59081;42.706;23.306;2023-03-31T07:02:02;6.57;;;2.55;;
43933;SDS011;59081;42.706;23.306;2023-03-31T07:04:37;7.32;;;2.78;;
43933;SDS011;59081;42.706;23.306;2023-03-31T07:07:07;7.50;;;2.17;;
43933;SDS011;59081;42.706;23.306;2023-03-31T07:09:35;15.10;;;3.30;;
43933;SDS011;59081;42.706;23.306;2023-03-31T07:12:04;11.75;;;2.92;;
43933;SDS011;59081;42.706;23.306;2023-03-31T07:14:35;12.15;;;2.40;;
43933;SDS011;59081;42.706;23.306;2023-03-31T07:17:04;12.55;;;2.63;;
43933;SDS011;59081;42.706;23.306;2023-03-31T07:19:38;1.23;;;1.13;;
43933;SDS011;59081;42.706;23.306;2023-03-31T07:22:14;5.63;;;2.55;;
43933;SDS011;59081;42.706;23.306;2023-03-31T07:24:40;3.45;;;1.77;;
43933;SDS011;59081;42.706;23.306;2023-03-31T07:27:08;7.93;;;2.92;;
43933;SDS011;59081;42.706;23.306;2023-03-31T07:29:34;10.18;;;2.95;;
43933;SDS011;59081;42.706;23.306;2023-03-31T07:32:01;5.40;;;2.72;;
43933;SDS011;59081;42.706;23.306;2023-03-31T07:34:32;7.63;;;2.88;;
43933;SDS011;59081;42.706;23.306;2023-03-31T07:37:03;2.38;;;1.75;;
43933;SDS011;59081;42.706;23.306;2023-03-31T07:39:35;5.03;;;3.03;;
43933;SDS011;59081;42.706;23.306;2023-03-31T07:42:03;5.43;;;3.28;;
43933;SDS011;59081;42.706;23.306;2023-03-31T07:44:31;4.28;;;2.22;;
43933;SDS011;59081;42.706;23.306;2023-03-31T07:49:41;7.28;;;3.47;;
43933;SDS011;59081;42.706;23.306;2023-03-31T07:59:57;9.43;;;3.63;;
43933;SDS011;59081;42.706;23.306;2023-03-31T08:02:23;12.55;;;3.78;;
43933;SDS011;59081;42.706;23.306;2023-03-31T08:04:49;13.82;;;3.65;;
43933;SDS011;59081;42.706;23.306;2023-03-31T08:07:15;6.05;;;2.50;;
43933;SDS011;59081;42.706;23.306;2023-03-31T08:12:09;10.13;;;2.60;;
43933;SDS011;59081;42.706;23.306;2023-03-31T08:14:35;5.00;;;2.58;;
43933;SDS011;59081;42.706;23.306;2023-03-31T08:17:00;8.35;;;2.95;;
43933;SDS011;59081;42.706;23.306;2023-03-31T08:19:27;9.20;;;2.95;;
43933;SDS011;59081;42.706;23.306;2023-03-31T08:21:53;7.40;;;2.92;;
43933;SDS011;59081;42.706;23.306;2023-03-31T08:24:19;6.55;;;2.80;;
43933;SDS011;59081;42.706;23.306;2023-03-31T08:26:45;6.25;;;2.25;;
43933;SDS011;59081;42.706;23.306;2023-03-31T08:29:11;13.57;;;3.05;;
43933;SDS011;59081;42.706;23.306;2023-03-31T08:31:37;8.95;;;3.97;;
43933;SDS011;59081;42.706;23.306;2023-03-31T08:34:03;9.73;;;2.38;;
43933;SDS011;59081;42.706;23.306;2023-03-31T08:36:29;8.38;;;2.42;;
43933;SDS011;59081;42.706;23.306;2023-03-31T08:38:55;18.48;;;2.65;;
43933;SDS011;59081;42.706;23.306;2023-03-31T08:44:03;6.65;;;2.40;;
43933;SDS011;59081;42.706;23.306;2023-03-31T08:46:41;1.98;;;1.48;;
43933;SDS011;59081;42.706;23.306;2023-03-31T08:49:08;2.25;;;1.30;;
43933;SDS011;59081;42.706;23.306;2023-03-31T08:51:41;17.67;;;1.58;;
43933;SDS011;59081;42.706;23.306;2023-03-31T08:54:16;5.88;;;1.80;;
43933;SDS011;59081;42.706;23.306;2023-03-31T08:56:50;12.90;;;2.95;;
43933;SDS011;59081;42.706;23.306;2023-03-31T08:59:27;4.40;;;1.70;;
43933;SDS011;59081;42.706;23.306;2023-03-31T09:16:09;5.20;;;2.33;;
43933;SDS011;59081;42.706;23.306;2023-03-31T09:18:46;9.30;;;2.53;;
43933;SDS011;59081;42.706;23.306;2023-03-31T09:24:09;5.35;;;2.00;;
43933;SDS011;59081;42.706;23.306;2023-03-31T09:27:20;11.88;;;2.55;;
43933;SDS011;59081;42.706;23.306;2023-03-31T09:29:54;5.40;;;2.13;;
43933;SDS011;59081;42.706;23.306;2023-03-31T09:32:30;9.18;;;2.03;;
43933;SDS011;59081;42.706;23.306;2023-03-31T09:35:33;3.08;;;1.90;;
43933;SDS011;59081;42.706;23.306;2023-03-31T09:38:02;24.58;;;2.65;;
43933;SDS011;59081;42.706;23.306;2023-03-31T09:40:44;5.38;;;2.28;;
43933;SDS011;59081;42.706;23.306;2023-03-31T09:45:52;4.22;;;1.60;;
43933;SDS011;59081;42.706;23.306;2023-03-31T09:48:20;4.93;;;1.90;;
43933;SDS011;59081;42.706;23.306;2023-03-31T09:56:10;4.40;;;1.88;;
43933;SDS011;59081;42.706;23.306;2023-03-31T09:58:42;5.15;;;1.88;;
43933;SDS011;59081;42.706;23.306;2023-03-31T10:01:16;3.20;;;1.83;;
43933;SDS011;59081;42.706;23.306;2023-03-31T10:03:47;3.28;;;1.80;;
43933;SDS011;59081;42.706;23.306;2023-03-31T10:06:18;6.45;;;1.88;;
43933;SDS011;59081;42.706;23.306;2023-03-31T10:11:21;4.43;;;1.40;;
43933;SDS011;59081;42.706;23.306;2023-03-31T10:13:49;5.20;;;1.90;;
43933;SDS011;59081;42.706;23.306;2023-03-31T10:16:42;6.38;;;2.63;;
43933;SDS011;59081;42.706;23.306;2023-03-31T10:21:57;7.80;;;2.30;;
43933;SDS011;59081;42.706;23.306;2023-03-31T10:24:25;2.65;;;1.58;;
43933;SDS011;59081;42.706;23.306;2023-03-31T10:27:00;8.40;;;1.83;;
43933;SDS011;59081;42.706;23.306;2023-03-31T10:29:28;3.85;;;1.83;;
43933;SDS011;59081;42.706;23.306;2023-03-31T10:32:19;5.85;;;1.73;;
43933;SDS011;59081;42.706;23.306;2023-03-31T10:34:47;4.80;;;1.65;;
43933;SDS011;59081;42.706;23.306;2023-03-31T10:37:17;2.20;;;1.83;;
43933;SDS011;59081;42.706;23.306;2023-03-31T10:39:59;7.72;;;2.13;;
43933;SDS011;59081;42.706;23.306;2023-03-31T10:42:38;5.30;;;2.05;;
43933;SDS011;59081;42.706;23.306;2023-03-31T10:45:24;6.43;;;2.00;;
43933;SDS011;59081;42.706;23.306;2023-03-31T10:47:54;10.82;;;2.20;;
43933;SDS011;59081;42.706;23.306;2023-03-31T10:50:28;6.20;;;1.63;;
43933;SDS011;59081;42.706;23.306;2023-03-31T10:53:05;7.60;;;3.05;;
43933;SDS011;59081;42.706;23.306;2023-03-31T10:58:51;5.20;;;2.00;;
43933;SDS011;59081;42.706;23.306;2023-03-31T11:01:32;5.78;;;1.83;;
43933;SDS011;59081;42.706;23.306;2023-03-31T11:26:00;7.10;;;2.00;;
43933;SDS011;59081;42.706;23.306;2023-03-31T11:34:04;6.82;;;1.88;;
43933;SDS011;59081;42.706;23.306;2023-03-31T11:44:38;6.60;;;1.90;;
43933;SDS011;59081;42.706;23.306;2023-03-31T11:47:24;6.53;;;2.53;;
43933;SDS011;59081;42.706;23.306;2023-03-31T11:50:00;8.00;;;2.63;;
43933;SDS011;59081;42.706;23.306;2023-03-31T11:52:44;8.40;;;2.17;;
43933;SDS011;59081;42.706;23.306;2023-03-31T11:55:19;6.25;;;1.70;;
43933;SDS011;59081;42.706;23.306;2023-03-31T12:00:31;7.53;;;2.45;;
43933;SDS011;59081;42.706;23.306;2023-03-31T12:05:44;6.72;;;2.20;;
43933;SDS011;59081;42.706;23.306;2023-03-31T12:08:22;5.82;;;2.00;;
43933;SDS011;59081;42.706;23.306;2023-03-31T12:13:46;8.50;;;2.30;;
43933;SDS011;59081;42.706;23.306;2023-03-31T12:16:21;6.18;;;2.38;;
43933;SDS011;59081;42.706;23.306;2023-03-31T12:21:55;6.18;;;1.80;;
43933;SDS011;59081;42.706;23.306;2023-03-31T12:24:29;4.53;;;1.55;;
43933;SDS011;59081;42.706;23.306;2023-03-31T12:29:57;8.82;;;2.05;;
43933;SDS011;59081;42.706;23.306;2023-03-31T12:32:35;7.22;;;1.60;;
43933;SDS011;59081;42.706;23.306;2023-03-31T12:35:30;6.40;;;1.58;;
43933;SDS011;59081;42.706;23.306;2023-03-31T13:08:54;6.93;;;2.00;;
43933;SDS011;59081;42.706;23.306;2023-03-31T13:11:33;3.53;;;1.85;;
43933;SDS011;59081;42.706;23.306;2023-03-31T13:17:09;6.57;;;2.42;;
43933;SDS011;59081;42.706;23.306;2023-03-31T13:19:46;8.02;;;2.10;;
43933;SDS011;59081;42.706;23.306;2023-03-31T13:22:28;9.57;;;2.47;;
43933;SDS011;59081;42.706;23.306;2023-03-31T13:27:32;4.25;;;1.70;;
43933;SDS011;59081;42.706;23.306;2023-03-31T13:29:58;5.18;;;2.00;;
43933;SDS011;59081;42.706;23.306;2023-03-31T13:32:25;9.60;;;2.15;;
43933;SDS011;59081;42.706;23.306;2023-03-31T13:38:00;5.60;;;1.80;;
43933;SDS011;59081;42.706;23.306;2023-03-31T13:43:26;5.72;;;1.67;;
43933;SDS011;59081;42.706;23.306;2023-03-31T14:00:15;4.07;;;1.67;;
43933;SDS011;59081;42.706;23.306;2023-03-31T14:05:47;4.00;;;2.07;;
43933;SDS011;59081;42.706;23.306;2023-03-31T14:08:29;7.82;;;2.83;;
43933;SDS011;59081;42.706;23.306;2023-03-31T14:11:14;6.15;;;2.28;;
43933;SDS011;59081;42.706;23.306;2023-03-31T14:14:10;6.57;;;2.33;;
43933;SDS011;59081;42.706;23.306;2023-03-31T14:38:44;7.97;;;2.20;;
43933;SDS011;59081;42.706;23.306;2023-03-31T14:41:18;8.50;;;2.00;;
43933;SDS011;59081;42.706;23.306;2023-03-31T14:46:29;8.45;;;2.08;;
43933;SDS011;59081;42.706;23.306;2023-03-31T14:51:30;8.63;;;2.95;;
43933;SDS011;59081;42.706;23.306;2023-03-31T14:53:57;4.43;;;2.15;;
43933;SDS011;59081;42.706;23.306;2023-03-31T14:56:41;5.50;;;2.58;;
43933;SDS011;59081;42.706;23.306;2023-03-31T14:59:07;8.35;;;3.20;;
43933;SDS011;59081;42.706;23.306;2023-03-31T15:01:40;7.20;;;2.10;;
43933;SDS011;59081;42.706;23.306;2023-03-31T15:04:06;14.60;;;3.42;;
43933;SDS011;59081;42.706;23.306;2023-03-31T15:06:34;6.63;;;3.17;;
43933;SDS011;59081;42.706;23.306;2023-03-31T15:09:04;8.75;;;2.25;;
43933;SDS011;59081;42.706;23.306;2023-03-31T15:11:30;9.00;;;3.08;;
43933;SDS011;59081;42.706;23.306;2023-03-31T15:13:59;9.35;;;2.20;;
43933;SDS011;59081;42.706;23.306;2023-03-31T15:16:36;9.38;;;2.22;;
43933;SDS011;59081;42.706;23.306;2023-03-31T15:21:41;8.25;;;2.80;;
43933;SDS011;59081;42.706;23.306;2023-03-31T15:24:14;7.05;;;2.25;;
43933;SDS011;59081;42.706;23.306;2023-03-31T15:26:42;6.97;;;2.55;;
43933;SDS011;59081;42.706;23.306;2023-03-31T15:29:24;4.72;;;2.08;;
43933;SDS011;59081;42.706;23.306;2023-03-31T15:32:01;8.10;;;2.28;;
43933;SDS011;59081;42.706;23.306;2023-03-31T15:34:30;6.13;;;2.67;;
43933;SDS011;59081;42.706;23.306;2023-03-31T15:36:58;11.52;;;2.97;;
43933;SDS011;59081;42.706;23.306;2023-03-31T15:39:25;7.95;;;2.00;;
43933;SDS011;59081;42.706;23.306;2023-03-31T15:41:54;8.70;;;2.47;;
43933;SDS011;59081;42.706;23.306;2023-03-31T15:44:28;6.47;;;2.05;;
43933;SDS011;59081;42.706;23.306;2023-03-31T15:46:56;7.18;;;2.63;;
43933;SDS011;59081;42.706;23.306;2023-03-31T15:49:30;7.60;;;2.35;;
43933;SDS011;59081;42.706;23.306;2023-03-31T15:51:56;9.95;;;2.67;;
43933;SDS011;59081;42.706;23.306;2023-03-31T15:54:37;7.57;;;1.90;;
43933;SDS011;59081;42.706;23.306;2023-03-31T16:02:37;3.88;;;1.90;;
43933;SDS011;59081;42.706;23.306;2023-03-31T16:05:15;9.93;;;3.13;;
43933;SDS011;59081;42.706;23.306;2023-03-31T16:07:52;5.53;;;1.95;;
43933;SDS011;59081;42.706;23.306;2023-03-31T16:10:18;8.15;;;2.05;;
43933;SDS011;59081;42.706;23.306;2023-03-31T16:13:05;10.23;;;2.42;;
43933;SDS011;59081;42.706;23.306;2023-03-31T16:15:39;12.00;;;7.63;;
43933;SDS011;59081;42.706;23.306;2023-03-31T16:18:13;10.52;;;3.00;;
43933;SDS011;59081;42.706;23.306;2023-03-31T16:20:43;11.05;;;2.17;;
43933;SDS011;59081;42.706;23.306;2023-03-31T16:23:24;15.60;;;4.95;;
43933;SDS011;59081;42.706;23.306;2023-03-31T16:25:52;9.25;;;5.65;;
43933;SDS011;59081;42.706;23.306;2023-03-31T16:28:19;4.90;;;2.75;;
43933;SDS011;59081;42.706;23.306;2023-03-31T16:30:48;9.63;;;4.43;;
43933;SDS011;59081;42.706;23.306;2023-03-31T16:33:15;12.63;;;3.90;;
43933;SDS011;59081;42.706;23.306;2023-03-31T16:35:44;6.40;;;2.50;;
43933;SDS011;59081;42.706;23.306;2023-03-31T16:38:15;29.55;;;20.45;;
43933;SDS011;59081;42.706;23.306;2023-03-31T16:40:42;17.67;;;12.15;;
43933;SDS011;59081;42.706;23.306;2023-03-31T16:43:17;12.85;;;4.80;;
43933;SDS011;59081;42.706;23.306;2023-03-31T16:45:47;12.90;;;4.38;;
43933;SDS011;59081;42.706;23.306;2023-03-31T16:48:26;5.75;;;3.40;;
43933;SDS011;59081;42.706;23.306;2023-03-31T16:50:57;15.48;;;6.07;;
43933;SDS011;59081;42.706;23.306;2023-03-31T16:53:31;7.55;;;3.65;;
43933;SDS011;59081;42.706;23.306;2023-03-31T16:55:58;12.02;;;4.00;;
43933;SDS011;59081;42.706;23.306;2023-03-31T16:58:25;12.90;;;5.82;;
43933;SDS011;59081;42.706;23.306;2023-03-31T17:00:54;12.88;;;5.20;;
43933;SDS011;59081;42.706;23.306;2023-03-31T17:03:21;20.48;;;13.38;;
43933;SDS011;59081;42.706;23.306;2023-03-31T17:05:48;10.88;;;5.35;;
43933;SDS011;59081;42.706;23.306;2023-03-31T17:10:52;17.95;;;7.47;;
43933;SDS011;59081;42.706;23.306;2023-03-31T17:13:25;12.90;;;5.15;;
43933;SDS011;59081;42.706;23.306;2023-03-31T17:15:51;16.58;;;6.80;;
43933;SDS011;59081;42.706;23.306;2023-03-31T17:18:17;12.52;;;5.25;;
43933;SDS011;59081;42.706;23.306;2023-03-31T17:20:43;20.15;;;5.70;;
43933;SDS011;59081;42.706;23.306;2023-03-31T17:23:10;21.48;;;7.53;;
43933;SDS011;59081;42.706;23.306;2023-03-31T17:25:36;17.23;;;5.45;;
43933;SDS011;59081;42.706;23.306;2023-03-31T17:28:04;11.18;;;5.60;;
43933;SDS011;59081;42.706;23.306;2023-03-31T17:30:30;16.65;;;6.13;;
43933;SDS011;59081;42.706;23.306;2023-03-31T17:32:59;23.88;;;5.45;;
43933;SDS011;59081;42.706;23.306;2023-03-31T17:35:25;12.35;;;6.30;;
43933;SDS011;59081;42.706;23.306;2023-03-31T17:37:51;13.00;;;6.38;;
43933;SDS011;59081;42.706;23.306;2023-03-31T17:40:20;14.40;;;6.45;;
43933;SDS011;59081;42.706;23.306;2023-03-31T17:42:47;19.08;;;5.53;;
43933;SDS011;59081;42.706;23.306;2023-03-31T17:45:13;12.40;;;5.68;;
43933;SDS011;59081;42.706;23.306;2023-03-31T17:47:40;16.02;;;5.07;;
43933;SDS011;59081;42.706;23.306;2023-03-31T17:50:06;14.52;;;6.13;;
43933;SDS011;59081;42.706;23.306;2023-03-31T17:52:33;18.75;;;6.93;;
43933;SDS011;59081;42.706;23.306;2023-03-31T17:55:02;23.33;;;6.88;;
43933;SDS011;59081;42.706;23.306;2023-03-31T17:57:29;12.68;;;5.55;;
43933;SDS011;59081;42.706;23.306;2023-03-31T17:59:55;11.05;;;5.30;;
43933;SDS011;59081;42.706;23.306;2023-03-31T18:02:21;14.80;;;6.00;;
43933;SDS011;59081;42.706;23.306;2023-03-31T18:04:51;10.73;;;5.18;;
43933;SDS011;59081;42.706;23.306;2023-03-31T18:07:17;14.82;;;6.38;;
43933;SDS011;59081;42.706;23.306;2023-03-31T18:09:43;25.42;;;10.98;;
43933;SDS011;59081;42.706;23.306;2023-03-31T18:12:09;22.92;;;10.30;;
43933;SDS011;59081;42.706;23.306;2023-03-31T18:14:35;16.73;;;7.45;;
43933;SDS011;59081;42.706;23.306;2023-03-31T18:17:02;17.33;;;7.15;;
43933;SDS011;59081;42.706;23.306;2023-03-31T18:19:28;16.45;;;7.10;;
43933;SDS011;59081;42.706;23.306;2023-03-31T18:21:54;17.60;;;8.93;;
43933;SDS011;59081;42.706;23.306;2023-03-31T18:24:19;22.73;;;11.65;;
43933;SDS011;59081;42.706;23.306;2023-03-31T18:26:47;31.38;;;12.93;;
43933;SDS011;59081;42.706;23.306;2023-03-31T18:29:16;23.95;;;10.30;;
43933;SDS011;59081;42.706;23.306;2023-03-31T18:31:41;24.30;;;9.80;;
43933;SDS011;59081;42.706;23.306;2023-03-31T18:34:07;22.50;;;8.55;;
43933;SDS011;59081;42.706;23.306;2023-03-31T18:36:33;21.90;;;10.60;;
43933;SDS011;59081;42.706;23.306;2023-03-31T18:38:59;21.90;;;9.52;;
43933;SDS011;59081;42.706;23.306;2023-03-31T18:41:25;22.50;;;11.40;;
43933;SDS011;59081;42.706;23.306;2023-03-31T18:43:51;41.17;;;19.25;;
43933;SDS011;59081;42.706;23.306;2023-03-31T18:46:17;50.60;;;25.27;;
43933;SDS011;59081;42.706;23.306;2023-03-31T18:48:43;33.08;;;16.02;;
43933;SDS011;59081;42.706;23.306;2023-03-31T18:51:10;24.75;;;11.02;;
43933;SDS011;59081;42.706;23.306;2023-03-31T18:53:36;25.45;;;11.18;;
43933;SDS011;59081;42.706;23.306;2023-03-31T18:56:02;27.40;;;16.75;;
43933;SDS011;59081;42.706;23.306;2023-03-31T18:58:28;33.13;;;11.75;;
43933;SDS011;59081;42.706;23.306;2023-03-31T19:00:55;21.10;;;9.07;;
43933;SDS011;59081;42.706;23.306;2023-03-31T19:03:21;25.65;;;12.57;;
43933;SDS011;59081;42.706;23.306;2023-03-31T19:05:47;18.15;;;10.07;;
43933;SDS011;59081;42.706;23.306;2023-03-31T19:08:13;29.30;;;10.95;;
43933;SDS011;59081;42.706;23.306;2023-03-31T19:10:39;20.00;;;9.23;;
43933;SDS011;59081;42.706;23.306;2023-03-31T19:13:05;25.92;;;9.57;;
43933;SDS011;59081;42.706;23.306;2023-03-31T19:15:31;22.35;;;10.02;;
43933;SDS011;59081;42.706;23.306;2023-03-31T19:17:57;26.05;;;11.13;;
43933;SDS011;59081;42.706;23.306;2023-03-31T19:20:23;19.98;;;9.38;;
43933;SDS011;59081;42.706;23.306;2023-03-31T19:22:50;28.40;;;12.45;;
43933;SDS011;59081;42.706;23.306;2023-03-31T19:25:17;32.22;;;13.18;;
43933;SDS011;59081;42.706;23.306;2023-03-31T19:27:44;24.45;;;13.20;;
43933;SDS011;59081;42.706;23.306;2023-03-31T19:30:17;29.55;;;14.02;;
43933;SDS011;59081;42.706;23.306;2023-03-31T19:32:45;31.98;;;14.48;;
43933;SDS011;59081;42.706;23.306;2023-03-31T19:35:13;37.28;;;14.27;;
43933;SDS011;59081;42.706;23.306;2023-03-31T19:37:39;33.58;;;13.85;;
43933;SDS011;59081;42.706;23.306;2023-03-31T19:40:05;32.55;;;16.33;;
43933;SDS011;59081;42.706;23.306;2023-03-31T19:42:32;35.00;;;18.42;;
43933;SDS011;59081;42.706;23.306;2023-03-31T19:44:57;41.60;;;23.38;;
43933;SDS011;59081;42.706;23.306;2023-03-31T19:47:25;42.55;;;20.02;;
43933;SDS011;59081;42.706;23.306;2023-03-31T19:49:51;39.22;;;19.02;;
43933;SDS011;59081;42.706;23.306;2023-03-31T19:52:17;46.53;;;14.82;;
43933;SDS011;59081;42.706;23.306;2023-03-31T19:54:42;28.17;;;13.68;;
43933;SDS011;59081;42.706;23.306;2023-03-31T19:57:08;19.58;;;10.68;;